Lyme Center, New Hampshire
Current Conditions -  °F | °C
As of 3:53 AM on Friday 24 Oct 2014 (Local Time) from KLEB Reporting Station
Overcast Overcast  
Wind Chill: 43°   Ceiling: 1900
Heat Index: 47°   Visibility: 10mi
Dew Point: 42°   Wind: 8mph
Humidity: 83%   Direction: 320°NW
Pressure: 29.74"   Gusts: NA
Location:  43.8°N, 72.12°W
Report Text: KLEB 240753Z AUTO 32007KT 10SM FEW009 OVC019 08/06 A2974 RMK AO2 RAE42 SLP071 P0001 T00830056
Loading
Personal Weather Stations






























Interactive Weather Map
Tropical Storm Tracking
New forecast layout! Learn more

10-Day Weather Forecast

Advertisements
Track Severe Weather on mobile